Time;durP1;ratioP1;P1;durP2;ratioP2;P2;SDS_P1;SDS_P2;PMS_P1;PMS_P2;Temp;Humidity;BMP_temperature;BMP_pressure;BME280_temperature;BME280_humidity;BME280_pressure;Samples;Min_cycle;Max_cycle;Signal;HPM_P1;HPM_P2
2023/12/13 00:00:21;;;;;;;;;3.75;3.75;;;;;16.13;100.00;99331.06;2088579;28;46409;-54
2023/12/13 00:01:21;;;;;;;;;3.67;3.67;;;;;16.12;100.00;99326.63;2085846;28;46248;-55
2023/12/13 00:02:21;;;;;;;;;1.67;1.67;;;;;16.12;100.00;99323.09;2088122;28;46209;-57
2023/12/13 00:03:22;;;;;;;;;4.67;2.67;;;;;16.11;100.00;99313.34;2088079;28;46409;-56
2023/12/13 00:04:22;;;;;;;;;3.33;2.00;;;;;16.10;100.00;99317.84;2088537;28;46778;-54
2023/12/13 00:05:22;;;;;;;;;2.00;2.00;;;;;16.10;100.00;99309.81;2088135;28;46274;-55
2023/12/13 00:06:22;;;;;;;;;3.00;2.67;;;;;16.08;100.00;99310.91;2088604;28;46270;-51
2023/12/13 00:07:23;;;;;;;;;3.00;3.00;;;;;16.09;100.00;99310.78;2095323;28;46384;-55
2023/12/13 00:08:23;;;;;;;;;4.67;3.00;;;;;16.09;100.00;99312.59;2094871;28;45970;-55
2023/12/13 00:09:23;;;;;;;;;4.00;3.00;;;;;16.09;100.00;99307.25;2086103;28;46853;-53
2023/12/13 00:10:24;;;;;;;;;3.33;3.33;;;;;16.10;100.00;99307.16;2088305;28;46368;-57
2023/12/13 00:11:24;;;;;;;;;2.67;2.00;;;;;16.19;100.00;99311.91;2087967;28;45038;-55
2023/12/13 00:12:24;;;;;;;;;3.67;2.00;;;;;16.22;100.00;99312.66;2088182;28;47128;-56
2023/12/13 00:13:26;;;;;;;;;3.00;3.00;;;;;16.23;100.00;99311.69;2087132;28;46513;-54
2023/12/13 00:14:26;;;;;;;;;3.25;1.75;;;;;16.22;100.00;99309.97;2087918;28;46666;-57
2023/12/13 00:15:27;;;;;;;;;2.33;2.00;;;;;16.22;100.00;99326.03;2088114;28;46278;-57
2023/12/13 00:16:27;;;;;;;;;4.00;3.33;;;;;16.21;100.00;99314.47;2086708;28;46419;-56
2023/12/13 00:17:28;;;;;;;;;2.00;2.00;;;;;16.21;100.00;99322.50;2086692;28;45946;-56
2023/12/13 00:18:28;;;;;;;;;3.67;2.33;;;;;16.22;100.00;99316.19;2088519;28;45670;-58
2023/12/13 00:19:29;;;;;;;;;1.00;1.00;;;;;16.22;100.00;99308.16;2087939;28;46450;-55
2023/12/13 00:20:29;;;;;;;;;0.00;0.00;;;;;16.22;100.00;99307.28;2088304;28;46384;-57
2023/12/13 00:21:30;;;;;;;;;1.00;1.00;;;;;16.22;100.00;99316.19;2088151;28;46356;-58
2023/12/13 00:22:32;;;;;;;;;2.67;2.67;;;;;16.24;100.00;99318.75;2087716;28;46264;-57
2023/12/13 00:23:32;;;;;;;;;2.75;1.75;;;;;16.22;100.00;99316.19;2088141;28;46776;-58
2023/12/13 00:24:32;;;;;;;;;3.33;3.00;;;;;16.23;100.00;99309.84;2088147;28;46176;-55
2023/12/13 00:25:33;;;;;;;;;3.67;2.33;;;;;16.22;100.00;99310.81;2088277;28;47666;-58
2023/12/13 00:26:33;;;;;;;;;2.67;1.67;;;;;16.22;100.00;99300.13;2087196;28;46521;-56
2023/12/13 00:27:33;;;;;;;;;1.33;1.33;;;;;16.20;100.00;99307.41;2087575;28;45306;-57
2023/12/13 00:28:34;;;;;;;;;2.00;1.67;;;;;16.22;100.00;99307.28;2088001;28;46296;-56
2023/12/13 00:29:34;;;;;;;;;2.00;2.00;;;;;16.21;100.00;99300.22;2086595;28;46761;-54
2023/12/13 00:30:34;;;;;;;;;2.00;2.00;;;;;16.19;100.00;99309.22;2088047;28;46125;-57
2023/12/13 00:31:35;;;;;;;;;2.00;2.00;;;;;16.19;100.00;99305.69;2088162;28;46848;-54
2023/12/13 00:32:35;;;;;;;;;2.00;2.00;;;;;16.17;100.00;99300.44;2087641;28;46294;-54
2023/12/13 00:33:36;;;;;;;;;3.00;2.00;;;;;16.11;100.00;99294.63;2087962;28;46250;-54
2023/12/13 00:34:36;;;;;;;;;3.33;2.00;;;;;16.15;100.00;99298.84;2087589;28;46323;-56
2023/12/13 00:35:37;;;;;;;;;2.00;2.00;;;;;16.16;100.00;99296.06;2088111;28;46446;-56
2023/12/13 00:36:38;;;;;;;;;1.33;1.33;;;;;16.15;100.00;99305.03;2087915;28;46189;-56
2023/12/13 00:37:38;;;;;;;;;2.00;1.00;;;;;16.12;100.00;99299.88;2087901;28;46722;-56
2023/12/13 00:38:39;;;;;;;;;3.00;1.00;;;;;16.11;100.00;99292.81;2088156;28;46253;-56
2023/12/13 00:39:39;;;;;;;;;1.67;1.00;;;;;16.12;100.00;99296.34;2088093;28;46835;-54
2023/12/13 00:40:39;;;;;;;;;2.33;2.00;;;;;16.11;100.00;99299.97;2088031;28;46569;-58
2023/12/13 00:41:39;;;;;;;;;2.33;2.33;;;;;16.10;100.00;99295.59;2088632;28;47317;-58
2023/12/13 00:42:40;;;;;;;;;4.33;2.00;;;;;16.12;100.00;99297.19;2088266;28;46679;-58
2023/12/13 00:43:40;;;;;;;;;1.00;1.00;;;;;16.11;100.00;99303.50;2088664;28;46164;-55
2023/12/13 00:44:41;;;;;;;;;1.33;1.33;;;;;16.11;100.00;99292.81;2089615;28;46378;-56
2023/12/13 00:45:41;;;;;;;;;1.00;1.00;;;;;16.12;100.00;99282.97;2088260;28;46288;-53
2023/12/13 00:46:41;;;;;;;;;3.00;2.00;;;;;16.11;100.00;99292.81;2089260;28;46350;-54
2023/12/13 00:47:43;;;;;;;;;1.00;1.00;;;;;16.11;100.00;99287.44;2089420;28;46675;-55
2023/12/13 00:48:43;;;;;;;;;1.75;1.75;;;;;16.10;100.00;99283.06;2089818;28;46392;-54
2023/12/13 00:49:43;;;;;;;;;4.33;1.33;;;;;16.11;100.00;99290.13;2088688;28;46362;-52
2023/12/13 00:50:44;;;;;;;;;2.67;1.67;;;;;16.11;100.00;99290.13;2088594;28;46842;-54
2023/12/13 00:51:44;;;;;;;;;1.67;1.67;;;;;16.10;100.00;99283.06;2089371;28;46351;-54
2023/12/13 00:52:44;;;;;;;;;0.67;0.67;;;;;16.12;100.00;99291.84;2089295;28;46867;-55
2023/12/13 00:53:45;;;;;;;;;3.00;0.67;;;;;16.12;100.00;99280.28;2089682;28;45787;-54
2023/12/13 00:54:46;;;;;;;;;0.00;0.00;;;;;16.11;100.00;99279.44;2087283;28;46156;-56
2023/12/13 00:55:50;;;;;;;;;1.00;0.75;;;;;16.13;100.00;99290.03;2089332;28;46511;-57
2023/12/13 00:56:50;;;;;;;;;1.75;1.75;;;;;16.12;100.00;99285.63;2087573;28;46350;-55
2023/12/13 00:57:50;;;;;;;;;2.33;1.33;;;;;16.09;100.00;99281.34;2081424;28;46308;-54
2023/12/13 00:58:51;;;;;;;;;1.00;1.00;;;;;16.11;100.00;99276.75;2093493;28;46154;-56
2023/12/13 00:59:51;;;;;;;;;1.00;1.00;;;;;16.11;100.00;99275.88;2096229;28;46795;-55
2023/12/13 01:00:51;;;;;;;;;4.33;1.67;;;;;16.09;100.00;99272.47;2089339;28;46792;-56
2023/12/13 01:01:52;;;;;;;;;3.33;1.67;;;;;16.09;100.00;99277.81;2088018;28;46290;-55
2023/12/13 01:02:52;;;;;;;;;1.00;1.00;;;;;16.09;100.00;99284.03;2087248;28;46435;-56
2023/12/13 01:03:53;;;;;;;;;1.00;1.00;;;;;16.07;100.00;99293.97;2089259;28;46866;-52
2023/12/13 01:04:53;;;;;;;;;4.00;4.00;;;;;16.06;100.00;99278.88;2089096;28;46626;-53
2023/12/13 01:05:53;;;;;;;;;2.00;2.00;;;;;16.05;100.00;99282.53;2089967;28;45731;-54
2023/12/13 01:06:54;;;;;;;;;2.00;0.00;;;;;16.05;100.00;99281.66;2089403;28;46335;-55
2023/12/13 01:07:54;;;;;;;;;0.67;0.67;;;;;16.05;100.00;99287.03;2089227;28;46317;-57
2023/12/13 01:08:54;;;;;;;;;2.67;2.67;;;;;16.07;100.00;99282.41;2088629;28;47110;-57
2023/12/13 01:09:54;;;;;;;;;1.00;0.67;;;;;16.05;100.00;99277.19;2089292;28;46444;-57
2023/12/13 01:10:55;;;;;;;;;2.67;2.00;;;;;16.05;100.00;99274.50;2089493;28;46815;-55
2023/12/13 01:11:55;;;;;;;;;1.00;1.00;;;;;16.05;100.00;99271.81;2087495;28;46274;-56
2023/12/13 01:12:55;;;;;;;;;2.00;0.00;;;;;16.07;100.00;99279.75;2089643;28;46520;-55
2023/12/13 01:13:56;;;;;;;;;0.67;0.67;;;;;16.06;100.00;99275.34;2089371;28;46952;-54
2023/12/13 01:14:56;;;;;;;;;1.67;1.00;;;;;16.05;100.00;99273.66;2089415;28;45707;-57
2023/12/13 01:15:56;;;;;;;;;2.00;1.00;;;;;16.03;100.00;99271.06;2097253;28;46434;-55
2023/12/13 01:16:57;;;;;;;;;1.67;1.67;;;;;16.04;100.00;99275.47;2096896;28;46489;-56
2023/12/13 01:17:57;;;;;;;;;4.00;1.67;;;;;16.04;100.00;99274.59;2089143;28;46199;-55
2023/12/13 01:18:57;;;;;;;;;4.00;2.00;;;;;16.05;100.00;99273.66;2089227;28;46853;-56
2023/12/13 01:19:58;;;;;;;;;1.67;0.67;;;;;16.05;100.00;99270.97;2089041;28;46630;-55
2023/12/13 01:20:58;;;;;;;;;3.00;2.00;;;;;16.04;100.00;99277.28;2087574;28;45815;-56
2023/12/13 01:21:58;;;;;;;;;4.33;3.00;;;;;16.03;100.00;99273.75;2095819;28;46281;-53
2023/12/13 01:22:59;;;;;;;;;2.33;2.33;;;;;16.04;100.00;99277.28;2097219;28;46885;-56
2023/12/13 01:24:00;;;;;;;;;4.00;3.00;;;;;15.94;100.00;99263.66;2079552;28;46325;-56
2023/12/13 01:25:00;;;;;;;;;2.75;2.25;;;;;15.93;100.00;99269.09;2079583;28;46336;-58
2023/12/13 01:26:01;;;;;;;;;3.00;2.00;;;;;15.91;100.00;99263.88;2089163;28;46928;-54
2023/12/13 01:27:01;;;;;;;;;2.00;1.00;;;;;15.88;100.00;99264.94;2089414;28;46444;-54
2023/12/13 01:28:02;;;;;;;;;0.67;0.67;;;;;15.89;100.00;99272.00;2088991;28;46890;-55
2023/12/13 01:29:02;;;;;;;;;1.00;1.00;;;;;15.89;100.00;99268.47;2089271;28;46307;-54
2023/12/13 01:30:03;;;;;;;;;3.00;2.67;;;;;15.90;100.00;99272.84;2089251;28;46654;-55
2023/12/13 01:31:07;;;;;;;;;3.75;2.50;;;;;15.89;100.00;99269.31;2089140;28;46022;-56
2023/12/13 01:32:08;;;;;;;;;0.75;0.75;;;;;15.89;100.00;99272.00;2089325;28;46979;-55
2023/12/13 01:33:08;;;;;;;;;2.00;1.00;;;;;15.88;100.00;99274.78;2089068;28;46529;-57
2023/12/13 01:34:08;;;;;;;;;2.00;2.00;;;;;15.87;100.00;99267.69;2089064;28;46298;-56
2023/12/13 01:35:09;;;;;;;;;1.33;1.00;;;;;15.86;100.00;99271.31;2089440;28;46785;-53
2023/12/13 01:36:09;;;;;;;;;2.67;0.67;;;;;15.84;100.00;99284.81;2088134;28;46575;-52
2023/12/13 01:37:09;;;;;;;;;2.00;2.00;;;;;15.83;100.00;99274.19;2083799;28;45138;-56
2023/12/13 01:38:10;;;;;;;;;0.67;0.67;;;;;15.80;100.00;99275.28;2089028;28;46288;-55
2023/12/13 01:39:12;;;;;;;;;0.67;0.67;;;;;15.81;100.00;99274.31;2089004;28;46644;-55
2023/12/13 01:40:13;;;;;;;;;3.75;3.75;;;;;15.79;100.00;99273.56;2088276;28;46400;-53
2023/12/13 01:41:13;;;;;;;;;3.33;2.00;;;;;15.79;100.00;99278.06;2089230;28;46375;-57
2023/12/13 01:42:13;;;;;;;;;1.33;1.33;;;;;15.79;100.00;99278.06;2088919;28;46786;-53
2023/12/13 01:43:22;;;;;;;;;0.67;0.67;;;;;15.78;100.00;99279.00;2087594;28;46798;-55
2023/12/13 01:44:22;;;;;;;;;2.00;2.00;;;;;15.78;100.00;99273.66;2084992;28;46421;-56
2023/12/13 01:45:23;;;;;;;;;3.00;2.00;;;;;15.77;100.00;99279.97;2079443;28;46790;-53
2023/12/13 01:46:23;;;;;;;;;1.00;1.00;;;;;15.77;100.00;99275.47;2080291;28;46132;-54
2023/12/13 01:47:24;;;;;;;;;2.33;2.00;;;;;15.78;100.00;99279.00;2087436;28;46218;-55
2023/12/13 01:48:26;;;;;;;;;4.00;1.33;;;;;15.76;100.00;99276.44;2087613;28;46162;-53
2023/12/13 01:49:26;;;;;;;;;4.25;2.50;;;;;15.77;100.00;99278.16;2079547;28;46421;-55
2023/12/13 01:50:26;;;;;;;;;4.00;2.00;;;;;15.77;100.00;99277.31;2087761;28;46391;-55
2023/12/13 01:51:28;;;;;;;;;3.00;1.00;;;;;15.76;100.00;99271.09;2089127;28;46460;-56
2023/12/13 01:52:29;;;;;;;;;3.00;1.25;;;;;15.77;100.00;99277.31;2088844;28;46492;-56
2023/12/13 01:53:30;;;;;;;;;1.33;1.33;;;;;15.76;100.00;99284.47;2088446;28;45602;-55
2023/12/13 01:54:31;;;;;;;;;2.75;1.50;;;;;15.76;100.00;99284.47;2089209;28;46813;-54
2023/12/13 01:55:31;;;;;;;;;1.33;0.33;;;;;15.76;100.00;99278.25;2089124;28;46825;-56
2023/12/13 01:56:32;;;;;;;;;0.33;0.33;;;;;15.75;100.00;99274.72;2089086;28;46515;-56
2023/12/13 01:57:33;;;;;;;;;1.00;1.00;;;;;15.76;100.00;99283.63;2089535;28;46502;-55
2023/12/13 01:58:38;;;;;;;;;2.00;1.33;;;;;15.76;100.00;99272.91;2088895;28;46587;-57
2023/12/13 01:59:39;;;;;;;;;1.75;1.25;;;;;15.76;100.00;99276.44;2088938;28;47005;-54
2023/12/13 02:00:41;;;;;;;;;1.67;1.33;;;;;15.77;100.00;99282.66;2084477;28;46715;-58
2023/12/13 02:01:42;;;;;;;;;2.00;2.00;;;;;15.76;100.00;99280.94;2088915;28;46296;-55
2023/12/13 02:02:42;;;;;;;;;1.00;1.00;;;;;15.75;100.00;99285.44;2086391;28;46669;-55
2023/12/13 02:03:43;;;;;;;;;2.00;1.00;;;;;15.75;100.00;99289.88;2088386;28;46661;-55
2023/12/13 02:04:45;;;;;;;;;3.00;1.67;;;;;15.75;100.00;99290.78;2083563;28;46032;-54
2023/12/13 02:05:45;;;;;;;;;1.25;1.25;;;;;15.74;100.00;99288.19;2089075;28;46714;-54
2023/12/13 02:06:45;;;;;;;;;2.67;1.33;;;;;15.73;100.00;99292.66;2088833;28;46668;-55
2023/12/13 02:07:46;;;;;;;;;3.67;1.67;;;;;15.73;100.00;99291.81;2088965;28;46538;-53
2023/12/13 02:08:46;;;;;;;;;3.00;2.67;;;;;15.73;100.00;99294.50;2089260;28;46643;-56
2023/12/13 02:09:47;;;;;;;;;1.33;1.00;;;;;15.73;100.00;99289.13;2087552;28;46614;-57
2023/12/13 02:10:47;;;;;;;;;2.33;1.67;;;;;15.73;100.00;99295.34;2089004;28;46319;-55
2023/12/13 02:11:49;;;;;;;;;0.67;0.67;;;;;15.73;100.00;99298.03;2088920;28;46931;-57
2023/12/13 02:12:50;;;;;;;;;5.00;3.00;;;;;15.73;100.00;99290.00;2088820;28;47170;-55
2023/12/13 02:13:51;;;;;;;;;1.00;1.00;;;;;15.72;100.00;99298.13;2088873;28;46967;-55
2023/12/13 02:14:51;;;;;;;;;1.00;0.67;;;;;15.72;100.00;99296.31;2088652;28;46679;-56
2023/12/13 02:15:52;;;;;;;;;1.33;1.00;;;;;15.72;100.00;99293.63;2086099;28;46007;-53
2023/12/13 02:16:53;;;;;;;;;1.33;0.67;;;;;15.74;100.00;99294.38;2088479;28;46176;-56
2023/12/13 02:17:53;;;;;;;;;1.75;1.25;;;;;15.74;100.00;99294.38;2088933;28;46681;-55
2023/12/13 02:18:54;;;;;;;;;2.00;2.00;;;;;15.75;100.00;99292.56;2088953;28;46657;-54
2023/12/13 02:19:54;;;;;;;;;2.00;2.00;;;;;15.75;100.00;99289.88;2087930;28;46347;-55
2023/12/13 02:20:55;;;;;;;;;2.67;2.67;;;;;15.73;100.00;99294.50;2088628;28;45775;-55
2023/12/13 02:21:55;;;;;;;;;2.67;2.00;;;;;15.72;100.00;99293.63;2089132;28;46430;-54
2023/12/13 02:22:56;;;;;;;;;2.33;1.67;;;;;15.72;100.00;99287.44;2096673;28;46330;-57
2023/12/13 02:24:00;;;;;;;;;2.00;2.00;;;;;15.74;100.00;99288.19;2096641;28;46706;-54
2023/12/13 02:25:05;;;;;;;;;1.75;1.75;;;;;15.75;100.00;99279.19;2088372;28;46700;-56
2023/12/13 02:26:06;;;;;;;;;1.25;1.00;;;;;15.75;100.00;99288.09;2088815;28;46387;-57
2023/12/13 02:27:07;;;;;;;;;2.00;2.00;;;;;15.75;100.00;99281.88;2088355;28;47396;-55
2023/12/13 02:28:08;;;;;;;;;1.00;1.00;;;;;15.76;100.00;99283.63;2089248;28;46291;-55
2023/12/13 02:29:09;;;;;;;;;2.75;0.25;;;;;15.76;100.00;99276.44;2088633;28;46359;-56
2023/12/13 02:30:10;;;;;;;;;3.00;0.50;;;;;15.76;100.00;99273.78;2088910;28;48120;-54
2023/12/13 02:31:11;;;;;;;;;3.33;1.67;;;;;15.76;100.00;99272.91;2088771;28;46593;-54
2023/12/13 02:32:12;;;;;;;;;2.50;2.50;;;;;15.76;100.00;99279.13;2088521;28;46492;-56
2023/12/13 02:33:12;;;;;;;;;1.00;1.00;;;;;15.76;100.00;99283.63;2086246;28;46946;-53
2023/12/13 02:34:12;;;;;;;;;0.67;0.67;;;;;15.77;100.00;99283.50;2087653;28;46412;-55
2023/12/13 02:35:13;;;;;;;;;4.33;1.00;;;;;15.77;100.00;99271.94;2088716;28;46755;-56
2023/12/13 02:36:13;;;;;;;;;1.67;0.67;;;;;15.77;100.00;99272.81;2088916;28;46405;-55
2023/12/13 02:37:13;;;;;;;;;2.00;1.67;;;;;15.76;100.00;99273.78;2085129;28;46676;-55
2023/12/13 02:38:14;;;;;;;;;2.00;2.00;;;;;15.75;100.00;99269.38;2089159;28;46168;-56
2023/12/13 02:39:14;;;;;;;;;1.00;1.00;;;;;15.76;100.00;99270.25;2088026;28;46512;-56
2023/12/13 02:40:17;;;;;;;;;0.67;0.67;;;;;15.75;100.00;99268.50;2088547;28;46997;-56
2023/12/13 02:41:17;;;;;;;;;1.50;1.50;;;;;15.74;100.00;99273.00;2088847;28;46341;-55
2023/12/13 02:42:17;;;;;;;;;2.33;0.67;;;;;15.74;100.00;99269.47;2088648;28;46529;-55
2023/12/13 02:43:18;;;;;;;;;1.00;1.00;;;;;15.75;100.00;99266.72;2088727;28;47299;-55
2023/12/13 02:44:18;;;;;;;;;1.33;0.67;;;;;15.75;100.00;99260.47;2088853;28;46835;-56
2023/12/13 02:45:20;;;;;;;;;0.67;0.00;;;;;15.73;100.00;99260.56;2088480;28;46842;-57
2023/12/13 02:46:20;;;;;;;;;1.00;1.00;;;;;15.74;100.00;99261.44;2088826;28;46435;-53
2023/12/13 02:47:25;;;;;;;;;1.67;0.00;;;;;15.74;100.00;99262.28;2088472;28;46918;-54
2023/12/13 02:48:25;;;;;;;;;2.00;0.75;;;;;15.75;100.00;99257.78;2086620;28;46561;-56
2023/12/13 02:49:26;;;;;;;;;2.00;2.00;;;;;15.74;100.00;99264.97;2081516;28;46821;-54
2023/12/13 02:50:26;;;;;;;;;1.00;1.00;;;;;15.73;100.00;99263.25;2088573;28;46725;-50
2023/12/13 02:51:27;;;;;;;;;2.67;0.67;;;;;15.74;100.00;99250.72;2088705;28;46403;-55
2023/12/13 02:52:27;;;;;;;;;2.00;1.00;;;;;15.74;100.00;99258.75;2080492;28;46767;-56
2023/12/13 02:53:28;;;;;;;;;0.67;0.67;;;;;15.74;100.00;99256.09;2087145;28;46153;-52
2023/12/13 02:54:29;;;;;;;;;2.25;0.75;;;;;15.73;100.00;99255.22;2088642;28;46648;-56
2023/12/13 02:55:29;;;;;;;;;4.00;2.00;;;;;15.72;100.00;99258.00;2088627;28;46846;-51
2023/12/13 02:56:29;;;;;;;;;1.00;0.67;;;;;15.71;100.00;99249.13;2088664;28;45617;-55
2023/12/13 02:57:30;;;;;;;;;1.67;1.00;;;;;15.71;100.00;99245.59;2088578;28;46361;-53
2023/12/13 02:58:30;;;;;;;;;2.00;0.67;;;;;15.69;100.00;99244.84;2088357;28;46271;-51
2023/12/13 02:59:31;;;;;;;;;1.00;1.00;;;;;15.67;100.00;99244.94;2085047;28;46686;-53
2023/12/13 03:00:31;;;;;;;;;2.25;0.75;;;;;15.67;100.00;99244.94;2088738;28;46616;-54
2023/12/13 03:01:32;;;;;;;;;2.33;0.67;;;;;15.68;100.00;99251.16;2088817;28;47044;-54
2023/12/13 03:02:32;;;;;;;;;3.00;1.67;;;;;15.66;100.00;99242.38;2088277;28;46250;-55
2023/12/13 03:03:33;;;;;;;;;1.00;1.00;;;;;15.65;100.00;99241.53;2088777;28;46612;-55
2023/12/13 03:04:33;;;;;;;;;1.67;0.67;;;;;15.65;100.00;99240.66;2087195;28;46180;-56
2023/12/13 03:05:33;;;;;;;;;1.67;1.67;;;;;15.64;100.00;99245.16;2086969;28;46671;-56
2023/12/13 03:06:34;;;;;;;;;2.67;2.00;;;;;15.64;100.00;99241.63;2086512;28;46142;-56
2023/12/13 03:07:34;;;;;;;;;1.33;1.33;;;;;15.61;100.00;99242.66;2088767;28;46900;-53
2023/12/13 03:08:36;;;;;;;;;1.00;1.00;;;;;15.61;100.00;99242.66;2088415;28;46481;-55
2023/12/13 03:09:36;;;;;;;;;2.25;1.25;;;;;15.60;100.00;99244.47;2088583;28;46381;-54
2023/12/13 03:10:36;;;;;;;;;2.00;1.33;;;;;15.59;100.00;99244.53;2086179;28;46676;-55
2023/12/13 03:11:39;;;;;;;;;1.00;1.00;;;;;15.58;100.00;99238.34;2085954;28;46628;-54
2023/12/13 03:12:39;;;;;;;;;4.75;2.50;;;;;15.58;100.00;99241.03;2088265;28;47021;-54
2023/12/13 03:13:40;;;;;;;;;5.33;2.33;;;;;15.57;100.00;99236.63;2088386;28;46774;-54
2023/12/13 03:14:40;;;;;;;;;1.33;1.33;;;;;15.59;100.00;99236.53;2088721;28;46711;-53
2023/12/13 03:15:41;;;;;;;;;3.67;2.00;;;;;15.58;100.00;99233.00;2089018;28;47030;-55
2023/12/13 03:16:41;;;;;;;;;3.00;1.00;;;;;15.57;100.00;99235.78;2085349;28;46665;-57
2023/12/13 03:17:41;;;;;;;;;3.00;2.00;;;;;15.56;100.00;99234.91;2087654;28;46264;-54
2023/12/13 03:18:42;;;;;;;;;2.00;1.00;;;;;15.56;100.00;99239.41;2088831;28;46592;-56
2023/12/13 03:19:42;;;;;;;;;6.00;2.33;;;;;15.55;100.00;99230.53;2087115;28;45884;-54
2023/12/13 03:20:42;;;;;;;;;1.00;1.00;;;;;15.54;100.00;99228.81;2087468;28;46304;-55
2023/12/13 03:21:43;;;;;;;;;2.00;2.00;;;;;15.54;100.00;99228.81;2088154;28;46871;-54
2023/12/13 03:22:43;;;;;;;;;2.67;1.00;;;;;15.54;100.00;99228.81;2088502;28;46126;-56
2023/12/13 03:23:43;;;;;;;;;0.33;0.00;;;;;15.52;100.00;99229.88;2088651;28;46261;-56
2023/12/13 03:24:44;;;;;;;;;2.00;2.00;;;;;15.53;100.00;99229.78;2086835;28;46195;-57
2023/12/13 03:25:45;;;;;;;;;0.00;0.00;;;;;15.53;100.00;99228.94;2089037;28;47233;-57
2023/12/13 03:26:45;;;;;;;;;2.00;0.33;;;;;15.51;100.00;99231.69;2088666;28;46581;-52
2023/12/13 03:27:45;;;;;;;;;1.00;1.00;;;;;15.53;100.00;99231.59;2088596;28;46240;-54
2023/12/13 03:28:46;;;;;;;;;2.00;1.00;;;;;15.53;100.00;99228.94;2088888;28;46656;-55
2023/12/13 03:29:46;;;;;;;;;3.00;1.33;;;;;15.55;100.00;99227.00;2088558;28;46357;-52
2023/12/13 03:30:46;;;;;;;;;0.33;0.33;;;;;15.49;100.00;99228.25;2087342;28;46387;-55
2023/12/13 03:31:46;;;;;;;;;0.67;0.67;;;;;15.49;100.00;99227.38;2088182;28;45674;-56
2023/12/13 03:32:47;;;;;;;;;3.00;2.00;;;;;15.49;100.00;99225.56;2088227;28;46340;-54
2023/12/13 03:33:47;;;;;;;;;4.00;2.00;;;;;15.49;100.00;99230.91;2088363;28;46378;-54
2023/12/13 03:34:47;;;;;;;;;1.00;1.00;;;;;15.48;100.00;99228.34;2088443;28;46515;-55
2023/12/13 03:35:48;;;;;;;;;2.00;2.00;;;;;15.50;100.00;99223.75;2088104;28;45554;-56
2023/12/13 03:36:48;;;;;;;;;3.00;1.33;;;;;15.48;100.00;99229.19;2078725;28;46934;-51
2023/12/13 03:37:48;;;;;;;;;3.00;1.00;;;;;15.47;100.00;99224.81;2078919;28;45682;-54
2023/12/13 03:38:49;;;;;;;;;1.67;0.33;;;;;15.48;100.00;99231.03;2084377;28;45916;-54
2023/12/13 03:39:49;;;;;;;;;2.00;1.00;;;;;15.46;100.00;99224.91;2083858;28;46483;-54
2023/12/13 03:40:49;;;;;;;;;1.00;1.00;;;;;15.46;100.00;99225.78;2087642;28;46290;-54
2023/12/13 03:41:50;;;;;;;;;1.67;1.00;;;;;15.45;100.00;99224.06;2088473;28;46682;-55
2023/12/13 03:42:50;;;;;;;;;2.33;1.00;;;;;15.44;100.00;99224.16;2088384;28;45999;-55
2023/12/13 03:43:50;;;;;;;;;1.33;0.67;;;;;15.46;100.00;99232.94;2088278;28;46682;-53
2023/12/13 03:44:51;;;;;;;;;3.00;1.00;;;;;15.45;100.00;99225.88;2088508;28;46766;-56
2023/12/13 03:45:51;;;;;;;;;3.00;1.00;;;;;15.43;100.00;99219.78;2086816;28;46623;-56
2023/12/13 03:46:53;;;;;;;;;2.00;1.67;;;;;15.42;100.00;99224.28;2086516;28;46461;-55
2023/12/13 03:47:54;;;;;;;;;1.75;0.50;;;;;15.41;100.00;99221.72;2087691;28;46723;-54
2023/12/13 03:48:54;;;;;;;;;1.00;1.00;;;;;15.39;100.00;99224.47;2088071;28;46881;-56
2023/12/13 03:49:54;;;;;;;;;4.00;1.00;;;;;15.40;100.00;99218.19;2087935;28;46927;-56
2023/12/13 03:50:55;;;;;;;;;0.00;0.00;;;;;15.39;100.00;99226.31;2088322;28;46296;-56
2023/12/13 03:51:55;;;;;;;;;4.00;0.67;;;;;15.40;100.00;99226.19;2087842;28;46744;-53
2023/12/13 03:52:55;;;;;;;;;4.33;1.33;;;;;15.40;100.00;99223.53;2088302;28;46324;-55
2023/12/13 03:53:56;;;;;;;;;3.00;2.00;;;;;15.38;100.00;99222.78;2087457;28;45165;-56
2023/12/13 03:54:56;;;;;;;;;3.00;1.00;;;;;15.39;100.00;99220.94;2085254;28;46682;-55
2023/12/13 03:55:56;;;;;;;;;1.00;1.00;;;;;15.40;100.00;99220.84;2095800;28;46264;-54
2023/12/13 03:56:57;;;;;;;;;2.33;1.00;;;;;15.41;100.00;99219.88;2088060;28;45249;-56
2023/12/13 03:57:57;;;;;;;;;2.00;1.67;;;;;15.40;100.00;99214.66;2088320;28;46321;-55
2023/12/13 03:58:57;;;;;;;;;3.00;1.00;;;;;15.41;100.00;99216.34;2088835;28;46841;-55
2023/12/13 03:59:57;;;;;;;;;3.33;1.33;;;;;15.41;100.00;99208.34;2088118;28;46392;-56
2023/12/13 04:00:59;;;;;;;;;2.00;1.00;;;;;15.40;100.00;99209.31;2087739;28;46513;-55
2023/12/13 04:01:59;;;;;;;;;1.50;1.50;;;;;15.42;100.00;99215.41;2087876;28;46453;-56
2023/12/13 04:03:00;;;;;;;;;0.33;0.33;;;;;15.41;100.00;99219.03;2084841;28;46567;-54
2023/12/13 04:04:00;;;;;;;;;3.33;1.00;;;;;15.41;100.00;99208.34;2088542;28;46541;-54
2023/12/13 04:05:00;;;;;;;;;0.67;0.33;;;;;15.37;100.00;99215.69;2084071;28;45549;-55
2023/12/13 04:06:01;;;;;;;;;4.00;1.00;;;;;15.36;100.00;99215.78;2078356;28;46354;-55
2023/12/13 04:07:05;;;;;;;;;1.50;0.50;;;;;15.35;100.00;99216.75;2091838;28;46508;-54
2023/12/13 04:08:06;;;;;;;;;0.75;0.75;;;;;15.34;100.00;99217.69;2088349;28;46526;-54
2023/12/13 04:09:06;;;;;;;;;2.00;2.00;;;;;15.31;100.00;99206.25;2088765;28;46650;-54
2023/12/13 04:10:07;;;;;;;;;2.33;1.00;;;;;15.31;100.00;99219.63;2087922;28;46377;-57
2023/12/13 04:11:07;;;;;;;;;1.67;1.00;;;;;15.31;100.00;99219.63;2088671;28;46337;-56
2023/12/13 04:12:08;;;;;;;;;1.00;1.00;;;;;15.32;100.00;99217.81;2083051;28;46676;-53
2023/12/13 04:13:08;;;;;;;;;2.00;1.33;;;;;15.32;100.00;99217.81;2085761;28;46489;-56
2023/12/13 04:14:08;;;;;;;;;2.00;0.67;;;;;15.30;100.00;99215.22;2088467;28;46855;-56
2023/12/13 04:15:09;;;;;;;;;3.00;2.00;;;;;15.31;100.00;99213.41;2088709;28;46255;-55
2023/12/13 04:16:09;;;;;;;;;2.00;1.00;;;;;15.29;100.00;99216.19;2088308;28;46340;-56
2023/12/13 04:17:10;;;;;;;;;1.00;0.00;;;;;15.29;100.00;99220.69;2086707;28;46212;-56
2023/12/13 04:18:11;;;;;;;;;1.00;1.00;;;;;15.29;100.00;99216.19;2086742;28;46535;-55
2023/12/13 04:19:11;;;;;;;;;3.00;1.67;;;;;15.30;100.00;99217.91;2087530;28;46671;-53
2023/12/13 04:20:11;;;;;;;;;1.00;1.00;;;;;15.30;100.00;99214.38;2085239;28;46725;-54
2023/12/13 04:21:12;;;;;;;;;1.00;1.00;;;;;15.30;100.00;99219.72;2088338;28;46575;-55
2023/12/13 04:22:12;;;;;;;;;2.00;1.00;;;;;15.31;100.00;99219.63;2087944;28;46658;-53
2023/12/13 04:23:12;;;;;;;;;3.33;1.67;;;;;15.33;100.00;99219.53;2087926;28;46676;-55
2023/12/13 04:24:13;;;;;;;;;1.67;1.67;;;;;15.30;100.00;99220.59;2087985;28;46521;-54
2023/12/13 04:25:13;;;;;;;;;1.67;1.67;;;;;15.30;100.00;99227.75;2087642;28;46213;-55
2023/12/13 04:26:14;;;;;;;;;3.33;1.33;;;;;15.30;100.00;99225.06;2085481;28;46488;-52
2023/12/13 04:27:15;;;;;;;;;1.00;1.00;;;;;15.30;100.00;99219.72;2088106;28;46016;-54
2023/12/13 04:28:15;;;;;;;;;1.00;1.00;;;;;15.29;100.00;99220.69;2087893;28;46417;-56
2023/12/13 04:29:15;;;;;;;;;2.67;1.67;;;;;15.29;100.00;99220.69;2086547;28;46989;-54
2023/12/13 04:30:16;;;;;;;;;3.00;1.00;;;;;15.28;100.00;99217.16;2088112;28;46510;-56
2023/12/13 04:31:16;;;;;;;;;4.00;1.67;;;;;15.28;100.00;99221.66;2088195;28;46888;-54
2023/12/13 04:32:17;;;;;;;;;2.33;2.00;;;;;15.28;100.00;99217.16;2088264;28;46266;-54
2023/12/13 04:33:18;;;;;;;;;1.00;1.00;;;;;15.28;100.00;99218.97;2088413;28;46874;-55
2023/12/13 04:34:18;;;;;;;;;3.25;1.00;;;;;15.27;100.00;99219.94;2088101;28;45965;-56
2023/12/13 04:35:19;;;;;;;;;1.00;1.00;;;;;15.31;100.00;99218.75;2087150;28;46267;-56
2023/12/13 04:36:19;;;;;;;;;2.00;1.33;;;;;15.31;100.00;99216.94;2088523;28;46030;-55
2023/12/13 04:37:20;;;;;;;;;3.00;1.00;;;;;15.32;100.00;99223.16;2086791;28;46322;-55
2023/12/13 04:38:20;;;;;;;;;6.00;2.00;;;;;15.32;100.00;99218.66;2088180;28;46859;-55
2023/12/13 04:39:20;;;;;;;;;3.00;1.33;;;;;15.33;100.00;99222.19;2088266;28;46183;-56
2023/12/13 04:40:21;;;;;;;;;1.00;1.00;;;;;15.32;100.00;99220.47;2087536;28;46276;-55
2023/12/13 04:41:22;;;;;;;;;3.33;1.67;;;;;15.33;100.00;99219.53;2087027;28;46653;-57